Airport View

Enter AWOS ICAO identifier for current METAR.

ex. KFNL

KPBH 080645Z AUTO 18009G14KT 10SM OVC036 20/16 A3001 RMK AO2 T02030160

8 Aug 2020 06:38

Frequency: 125.875

Phone: 715-339-4520

Other Area AWOS: KRCX - KTKV - KARV - KD25

TAF KRHI 080520Z 0806/0906 19007KT P6SM BKN040 FM080800 20007KT P6SM VCSH BKN008 TEMPO 0809/0812 -TSRA BKN005CB FM081400 21009G15KT P6SM BKN015 FM081700 23008G17KT P6SM BKN018 FM082200 25007G15KT P6SM BKN040 FM090000 22005KT P6SM SCT040